createdAt,value
2022-10-24T00:01:48.774Z,15.83
2022-10-24T00:04:10.272Z,15.84
2022-10-24T00:06:31.783Z,15.81
2022-10-24T00:08:53.317Z,15.89
2022-10-24T00:11:21.274Z,15.91
2022-10-24T00:13:43.449Z,15.81
2022-10-24T00:16:05.611Z,15.93
2022-10-24T00:18:27.107Z,15.92
2022-10-24T00:20:48.690Z,15.68
2022-10-24T00:23:10.742Z,15.59
2022-10-24T00:25:32.376Z,15.58
2022-10-24T00:27:53.922Z,15.64
2022-10-24T00:30:15.423Z,15.83
2022-10-24T00:32:36.933Z,15.76
2022-10-24T00:34:58.428Z,15.76
2022-10-24T00:39:42.384Z,15.79
2022-10-24T00:42:04.269Z,15.76
2022-10-24T00:44:29.353Z,15.83
2022-10-24T00:47:08.187Z,15.81
2022-10-24T00:49:43.867Z,15.80
2022-10-24T00:52:08.937Z,15.70
2022-10-24T00:54:30.537Z,15.63
2022-10-24T00:57:24.760Z,15.63
2022-10-24T00:59:49.504Z,15.72
2022-10-24T01:02:11.068Z,15.83
2022-10-24T01:04:32.595Z,15.70
2022-10-24T01:07:14.866Z,15.47
2022-10-24T01:09:51.048Z,15.68
2022-10-24T01:12:21.535Z,15.59
2022-10-24T01:15:15.972Z,15.66
2022-10-24T01:18:08.610Z,15.49
2022-10-24T01:20:54.641Z,15.51
2022-10-24T01:23:25.268Z,15.42
2022-10-24T01:25:55.406Z,15.41
2022-10-24T01:28:22.582Z,15.30
2022-10-24T01:30:49.374Z,15.36
2022-10-24T01:33:30.642Z,15.49
2022-10-24T01:36:02.189Z,15.42
2022-10-24T01:38:30.011Z,15.48
2022-10-24T01:40:57.568Z,15.61
2022-10-24T01:43:27.348Z,15.64
2022-10-24T01:45:54.634Z,15.60
2022-10-24T01:48:19.905Z,15.81
2022-10-24T01:50:45.060Z,15.82
2022-10-24T01:53:08.979Z,15.96
2022-10-24T01:55:32.634Z,15.86
2022-10-24T01:57:54.129Z,15.77
2022-10-24T02:00:22.458Z,15.88
2022-10-24T02:02:46.941Z,15.88
2022-10-24T02:05:25.862Z,15.83
2022-10-24T02:07:51.226Z,15.90
2022-10-24T02:10:20.812Z,15.84
2022-10-24T02:12:51.992Z,15.94
2022-10-24T02:15:38.515Z,15.92
2022-10-24T02:18:00.762Z,15.85
2022-10-24T02:20:29.891Z,16.00
2022-10-24T02:23:00.938Z,16.04
2022-10-24T02:25:27.303Z,16.17
2022-10-24T02:28:03.684Z,16.12
2022-10-24T02:30:26.887Z,16.14
2022-10-24T02:32:57.783Z,16.08
2022-10-24T02:35:32.747Z,16.07
2022-10-24T02:38:02.504Z,16.01
2022-10-24T02:40:24.309Z,15.85
2022-10-24T02:42:49.130Z,15.73
2022-10-24T02:45:12.857Z,15.80
2022-10-24T02:47:35.414Z,15.81
2022-10-24T02:49:57.071Z,15.97
2022-10-24T02:52:19.386Z,15.86
2022-10-24T02:54:40.919Z,15.72
2022-10-24T02:57:04.142Z,15.70
2022-10-24T02:59:25.645Z,15.69
2022-10-24T03:01:47.262Z,15.72
2022-10-24T03:04:08.832Z,15.85
2022-10-24T03:06:30.354Z,15.88
2022-10-24T03:08:51.935Z,15.83
2022-10-24T03:11:13.542Z,15.87
2022-10-24T03:13:35.144Z,15.88
2022-10-24T03:15:56.616Z,15.83
2022-10-24T03:18:18.198Z,15.87
2022-10-24T03:20:39.678Z,15.75
2022-10-24T03:23:01.188Z,15.68
2022-10-24T03:25:22.778Z,15.52
2022-10-24T03:27:44.547Z,15.37
2022-10-24T03:30:06.776Z,15.37
2022-10-24T03:32:28.408Z,15.32
2022-10-24T03:34:49.927Z,15.26
2022-10-24T03:37:11.657Z,15.30
2022-10-24T03:39:33.125Z,15.42
2022-10-24T03:41:54.582Z,15.47
2022-10-24T03:44:16.068Z,15.53
2022-10-24T03:46:37.583Z,15.37
2022-10-24T03:48:59.244Z,15.37
2022-10-24T03:51:20.808Z,15.27
2022-10-24T03:53:42.386Z,15.27
2022-10-24T03:56:04.539Z,15.32
2022-10-24T03:58:26.416Z,15.22
2022-10-24T04:00:48.010Z,15.30
2022-10-24T04:03:09.998Z,15.39
2022-10-24T04:05:31.544Z,15.24
2022-10-24T04:07:53.061Z,15.31
2022-10-24T04:10:14.769Z,15.52
2022-10-24T04:12:36.317Z,15.48
2022-10-24T04:15:01.017Z,15.43
2022-10-24T04:17:25.841Z,15.51
2022-10-24T04:19:47.433Z,15.60
2022-10-24T04:22:09.161Z,15.48
2022-10-24T04:24:30.788Z,15.49
2022-10-24T04:26:52.443Z,15.29
2022-10-24T04:29:14.000Z,15.39
2022-10-24T04:31:35.535Z,15.29
2022-10-24T04:33:57.084Z,15.36
2022-10-24T04:36:18.730Z,15.22
2022-10-24T04:38:40.744Z,15.30
2022-10-24T04:41:02.353Z,15.15
2022-10-24T04:43:25.003Z,15.18
2022-10-24T04:45:47.033Z,15.17
2022-10-24T04:48:08.759Z,15.31
2022-10-24T04:50:30.234Z,15.03
2022-10-24T04:52:51.723Z,15.15
2022-10-24T04:55:13.254Z,14.92
2022-10-24T04:57:34.773Z,15.08
2022-10-24T04:59:56.222Z,15.09
2022-10-24T05:02:17.835Z,15.15
2022-10-24T05:04:39.356Z,15.22
2022-10-24T05:07:00.868Z,15.22
2022-10-24T05:09:22.342Z,15.32
2022-10-24T05:11:43.831Z,15.28
2022-10-24T05:14:05.295Z,15.52
2022-10-24T05:16:26.789Z,15.59
2022-10-24T05:18:48.222Z,15.66
2022-10-24T05:21:09.826Z,15.42
2022-10-24T05:23:31.336Z,15.42
2022-10-24T05:25:53.136Z,15.45
2022-10-24T05:28:14.669Z,15.37
2022-10-24T05:30:36.202Z,15.45
2022-10-24T05:32:57.700Z,15.45
2022-10-24T05:35:19.268Z,15.46
2022-10-24T05:37:40.869Z,15.50
2022-10-24T05:40:02.383Z,15.56
2022-10-24T05:42:23.961Z,15.58
2022-10-24T05:44:45.525Z,15.66
2022-10-24T05:47:07.116Z,15.68
2022-10-24T05:49:28.614Z,15.68
2022-10-24T05:51:50.127Z,15.53
2022-10-24T05:56:38.098Z,15.44
2022-10-24T05:58:59.566Z,15.37
2022-10-24T06:01:21.101Z,15.41
2022-10-24T06:03:42.850Z,15.36
2022-10-24T06:06:07.696Z,15.50
2022-10-24T06:08:29.172Z,15.61
2022-10-24T06:10:51.092Z,15.63
2022-10-24T06:13:12.570Z,15.71
2022-10-24T06:15:34.038Z,15.76
2022-10-24T06:17:55.521Z,15.82
2022-10-24T06:20:17.339Z,15.86
2022-10-24T06:22:39.080Z,15.95
2022-10-24T06:25:01.641Z,15.81
2022-10-24T06:27:23.594Z,15.93
2022-10-24T06:29:45.375Z,15.72
2022-10-24T06:32:06.908Z,15.88
2022-10-24T06:34:28.489Z,15.80
2022-10-24T06:36:50.052Z,15.89
2022-10-24T06:39:11.534Z,15.96
2022-10-24T06:41:33.027Z,15.95
2022-10-24T06:43:56.378Z,16.07
2022-10-24T06:46:18.002Z,16.02
2022-10-24T06:48:39.772Z,15.99
2022-10-24T06:51:01.747Z,16.02
2022-10-24T06:53:23.237Z,16.08
2022-10-24T06:55:44.722Z,16.01
2022-10-24T06:58:07.104Z,16.08
2022-10-24T07:02:54.961Z,16.05
2022-10-24T07:05:16.620Z,16.14
2022-10-24T07:07:38.695Z,16.22
2022-10-24T07:10:00.267Z,16.15
2022-10-24T07:12:22.939Z,16.46
2022-10-24T07:14:44.428Z,16.42
2022-10-24T07:17:06.181Z,16.51
2022-10-24T07:19:27.686Z,16.50
2022-10-24T07:21:49.235Z,16.34
2022-10-24T07:24:13.001Z,16.53
2022-10-24T07:26:34.496Z,16.63
2022-10-24T07:31:30.348Z,16.95
2022-10-24T07:33:52.946Z,17.15
2022-10-24T07:36:19.994Z,17.22
2022-10-24T07:38:41.481Z,17.12
2022-10-24T07:41:04.595Z,17.08
2022-10-24T07:43:26.122Z,16.95
2022-10-24T07:45:50.649Z,17.15
2022-10-24T07:48:13.706Z,17.20
2022-10-24T07:50:44.587Z,17.19
2022-10-24T07:53:06.054Z,17.21
2022-10-24T07:55:27.638Z,17.31
2022-10-24T07:57:49.175Z,17.51
2022-10-24T08:00:11.241Z,17.54
2022-10-24T08:02:33.033Z,17.49
2022-10-24T08:04:54.546Z,17.65
2022-10-24T08:07:16.020Z,17.88
2022-10-24T08:09:38.300Z,17.81
2022-10-24T08:11:59.751Z,17.90
2022-10-24T08:14:21.332Z,18.05
2022-10-24T08:16:42.888Z,17.94
2022-10-24T08:19:04.395Z,17.83
2022-10-24T08:21:26.309Z,17.89
2022-10-24T08:23:52.902Z,17.94
2022-10-24T08:26:17.040Z,17.86
2022-10-24T08:28:39.151Z,18.01
2022-10-24T08:31:03.869Z,18.12
2022-10-24T08:33:25.664Z,18.03
2022-10-24T08:35:47.142Z,18.29
2022-10-24T08:38:08.800Z,18.51
2022-10-24T08:40:30.429Z,18.78
2022-10-24T08:42:52.457Z,18.74
2022-10-24T08:45:22.430Z,18.81
2022-10-24T08:48:01.091Z,19.08
2022-10-24T08:50:31.897Z,19.14
2022-10-24T08:53:02.066Z,19.09
2022-10-24T08:55:48.151Z,19.24
2022-10-24T08:58:16.257Z,19.27
2022-10-24T09:00:42.612Z,19.23
2022-10-24T09:03:26.175Z,19.31
2022-10-24T09:05:58.784Z,19.28
2022-10-24T09:08:35.953Z,19.25
2022-10-24T09:11:01.036Z,19.10
2022-10-24T09:13:23.919Z,19.06
2022-10-24T09:15:47.275Z,19.12
2022-10-24T09:18:19.667Z,19.09
2022-10-24T09:20:41.145Z,19.00
2022-10-24T09:23:05.699Z,18.85
2022-10-24T09:25:31.668Z,18.76
2022-10-24T09:27:53.165Z,18.77
2022-10-24T09:30:18.626Z,18.91
2022-10-24T09:32:42.530Z,19.03
2022-10-24T09:35:20.800Z,19.09
2022-10-24T09:37:51.278Z,18.90
2022-10-24T09:40:22.208Z,19.22
2022-10-24T09:43:01.409Z,19.58
2022-10-24T09:45:46.434Z,19.58
2022-10-24T09:48:25.963Z,19.60
2022-10-24T09:50:52.712Z,19.77
2022-10-24T09:53:28.094Z,19.92
2022-10-24T09:55:53.081Z,20.04
2022-10-24T09:58:21.333Z,19.95
2022-10-24T10:00:42.813Z,20.20
2022-10-24T10:03:26.808Z,20.36
2022-10-24T10:05:50.733Z,20.39
2022-10-24T10:08:20.009Z,20.39
2022-10-24T10:10:41.628Z,20.46
2022-10-24T10:13:06.078Z,20.18
2022-10-24T10:15:38.010Z,20.53
2022-10-24T10:18:22.107Z,20.67
2022-10-24T10:20:43.595Z,20.78
2022-10-24T10:23:27.004Z,20.75
2022-10-24T10:25:48.461Z,20.73
2022-10-24T10:28:22.639Z,20.52
2022-10-24T10:30:49.916Z,20.23
2022-10-24T10:33:21.826Z,20.48
2022-10-24T10:35:48.343Z,20.15
2022-10-24T10:38:47.455Z,19.97
2022-10-24T10:41:23.165Z,20.00
2022-10-24T10:43:44.617Z,19.96
2022-10-24T10:46:14.915Z,19.99
2022-10-24T10:48:47.702Z,19.91
2022-10-24T10:51:09.164Z,19.85
2022-10-24T10:53:50.874Z,19.79
2022-10-24T10:56:21.327Z,19.97
2022-10-24T10:59:06.575Z,20.11
2022-10-24T11:01:44.058Z,20.20
2022-10-24T11:04:36.596Z,20.12
2022-10-24T11:07:37.963Z,20.02
2022-10-24T11:10:06.096Z,20.14
2022-10-24T11:12:36.663Z,20.06
2022-10-24T11:15:03.587Z,20.21
2022-10-24T11:17:59.676Z,19.99
2022-10-24T11:20:59.438Z,19.76
2022-10-24T11:23:41.122Z,20.13
2022-10-24T11:26:13.098Z,20.05
2022-10-24T11:29:12.552Z,20.25
2022-10-24T11:32:16.379Z,20.13
2022-10-24T11:34:45.448Z,20.16
2022-10-24T11:37:24.462Z,20.30
2022-10-24T11:40:18.643Z,20.50
2022-10-24T11:43:19.001Z,20.54
2022-10-24T11:45:58.978Z,20.75
2022-10-24T11:48:35.560Z,20.82
2022-10-24T11:51:09.621Z,21.08
2022-10-24T11:53:34.386Z,21.32
2022-10-24T11:56:23.462Z,21.47
2022-10-24T11:58:59.277Z,21.61
2022-10-24T12:01:48.346Z,21.32
2022-10-24T12:04:58.139Z,21.61
2022-10-24T12:07:34.208Z,21.76
2022-10-24T12:10:25.574Z,21.81
2022-10-24T12:13:20.086Z,21.97
2022-10-24T12:16:16.196Z,21.94
2022-10-24T12:18:45.626Z,22.03
2022-10-24T12:21:25.567Z,22.03
2022-10-24T12:23:56.624Z,21.76
2022-10-24T12:26:20.744Z,21.37
2022-10-24T12:28:43.559Z,21.33
2022-10-24T12:31:14.841Z,21.05
2022-10-24T12:33:36.618Z,21.15
2022-10-24T12:35:58.767Z,21.04
2022-10-24T12:38:29.145Z,21.15
2022-10-24T12:40:58.603Z,21.25
2022-10-24T12:43:47.464Z,21.20
2022-10-24T12:46:18.813Z,21.31
2022-10-24T12:48:59.666Z,20.98
2022-10-24T12:51:34.628Z,20.83
2022-10-24T12:54:11.108Z,20.69
2022-10-24T12:56:34.269Z,20.79
2022-10-24T12:59:18.218Z,20.55
2022-10-24T13:01:40.733Z,20.46
2022-10-24T13:04:05.026Z,20.65
2022-10-24T13:06:51.099Z,20.48
2022-10-24T13:09:41.878Z,20.73
2022-10-24T13:12:09.241Z,20.42
2022-10-24T13:15:00.854Z,20.47
2022-10-24T13:17:36.224Z,20.58
2022-10-24T13:20:21.407Z,20.56
2022-10-24T13:22:44.796Z,20.60
2022-10-24T13:25:33.802Z,20.59
2022-10-24T13:28:24.742Z,20.77
2022-10-24T13:30:49.657Z,20.62
2022-10-24T13:33:30.278Z,20.33
2022-10-24T13:35:53.157Z,20.28
2022-10-24T13:38:16.110Z,20.06
2022-10-24T13:40:42.607Z,19.96
2022-10-24T13:43:19.487Z,19.99
2022-10-24T13:46:00.317Z,20.17
2022-10-24T13:48:25.604Z,20.37
2022-10-24T13:51:02.651Z,20.36
2022-10-24T13:53:31.025Z,20.12
2022-10-24T13:55:53.499Z,20.04
2022-10-24T13:58:23.176Z,20.16
2022-10-24T14:00:51.144Z,20.21
2022-10-24T14:03:19.953Z,20.28
2022-10-24T14:05:48.399Z,20.25
2022-10-24T14:08:39.353Z,20.32
2022-10-24T14:11:04.804Z,20.04
2022-10-24T14:13:28.524Z,20.06
2022-10-24T14:15:53.872Z,19.83
2022-10-24T14:18:15.452Z,20.15
2022-10-24T14:20:37.771Z,19.91
2022-10-24T14:22:59.771Z,19.89
2022-10-24T14:25:24.253Z,19.83
2022-10-24T14:27:46.263Z,19.90
2022-10-24T14:30:18.383Z,20.15
2022-10-24T14:32:39.856Z,20.10
2022-10-24T14:37:35.882Z,20.03
2022-10-24T14:39:58.645Z,19.98
2022-10-24T14:42:20.987Z,19.70
2022-10-24T14:44:46.336Z,19.57
2022-10-24T14:47:28.354Z,19.68
2022-10-24T14:49:50.399Z,19.59
2022-10-24T14:52:26.965Z,19.46
2022-10-24T14:54:58.769Z,19.36
2022-10-24T14:57:22.805Z,19.31
2022-10-24T14:59:46.717Z,19.46
2022-10-24T15:02:37.618Z,19.25
2022-10-24T15:05:20.019Z,19.22
2022-10-24T15:07:57.228Z,19.26
2022-10-24T15:10:39.340Z,19.02
2022-10-24T15:13:13.890Z,18.88
2022-10-24T15:15:44.222Z,18.73
2022-10-24T15:18:05.769Z,18.82
2022-10-24T15:20:29.992Z,18.67
2022-10-24T15:22:56.405Z,18.74
2022-10-24T15:27:48.742Z,18.64
2022-10-24T15:30:21.343Z,18.49
2022-10-24T15:32:43.427Z,18.45
2022-10-24T15:35:05.511Z,18.40
2022-10-24T15:37:28.562Z,18.44
2022-10-24T15:39:50.922Z,18.39
2022-10-24T15:42:12.514Z,18.47
2022-10-24T15:44:35.363Z,18.36
2022-10-24T15:46:56.944Z,18.41
2022-10-24T15:49:18.549Z,18.33
2022-10-24T15:51:45.943Z,18.26
2022-10-24T15:54:12.062Z,18.24
2022-10-24T15:56:33.570Z,18.22
2022-10-24T15:58:55.952Z,18.26
2022-10-24T16:01:31.124Z,18.22
2022-10-24T16:03:52.749Z,18.18
2022-10-24T16:06:14.248Z,18.33
2022-10-24T16:08:35.782Z,18.38
2022-10-24T16:10:57.363Z,18.53
2022-10-24T16:13:21.278Z,18.65
2022-10-24T16:15:43.656Z,18.74
2022-10-24T16:18:06.735Z,18.88
2022-10-24T16:20:28.283Z,18.85
2022-10-24T16:22:50.188Z,18.79
2022-10-24T16:25:26.520Z,18.75
2022-10-24T16:27:48.833Z,18.50
2022-10-24T16:30:12.110Z,18.55
2022-10-24T16:32:33.641Z,18.64
2022-10-24T16:34:57.570Z,18.67
2022-10-24T16:37:20.322Z,18.64
2022-10-24T16:39:42.413Z,18.66
2022-10-24T16:42:05.350Z,18.76
2022-10-24T16:44:27.743Z,18.80
2022-10-24T16:46:52.134Z,18.84
2022-10-24T16:49:13.664Z,18.76
2022-10-24T16:51:35.633Z,18.62
2022-10-24T16:53:59.875Z,18.36
2022-10-24T16:56:21.356Z,18.52
2022-10-24T16:58:43.482Z,18.51
2022-10-24T17:01:10.326Z,18.38
2022-10-24T17:03:32.303Z,18.28
2022-10-24T17:05:53.822Z,18.18
2022-10-24T17:08:15.907Z,18.17
2022-10-24T17:10:38.228Z,18.16
2022-10-24T17:13:01.904Z,18.03
2022-10-24T17:15:23.406Z,17.86
2022-10-24T17:17:45.522Z,17.78
2022-10-24T17:20:12.296Z,17.85
2022-10-24T17:25:00.636Z,17.62
2022-10-24T17:27:22.406Z,17.51
2022-10-24T17:32:15.605Z,17.02
2022-10-24T17:34:37.435Z,17.07
2022-10-24T17:37:05.501Z,17.10
2022-10-24T17:39:49.664Z,17.16
2022-10-24T17:42:11.207Z,17.22
2022-10-24T17:44:32.932Z,17.12
2022-10-24T17:46:58.220Z,17.13
2022-10-24T17:49:21.700Z,17.21
2022-10-24T17:51:47.274Z,17.07
2022-10-24T17:54:10.789Z,17.12
2022-10-24T17:56:32.587Z,17.08
2022-10-24T17:58:54.205Z,17.16
2022-10-24T18:01:15.816Z,17.37
2022-10-24T18:03:37.374Z,17.09
2022-10-24T18:06:03.669Z,16.97
2022-10-24T18:08:25.377Z,16.86
2022-10-24T18:10:46.853Z,16.94
2022-10-24T18:13:09.272Z,16.99
2022-10-24T18:15:31.148Z,16.83
2022-10-24T18:17:52.661Z,16.87
2022-10-24T18:20:15.686Z,16.91
2022-10-24T18:22:38.575Z,16.98
2022-10-24T18:25:00.049Z,16.82
2022-10-24T18:27:21.595Z,16.92
2022-10-24T18:29:44.106Z,16.73
2022-10-24T18:32:05.729Z,16.86
2022-10-24T18:34:27.316Z,16.77
2022-10-24T18:36:48.890Z,16.70
2022-10-24T18:39:10.492Z,16.58
2022-10-24T18:41:43.097Z,16.65
2022-10-24T18:44:33.412Z,16.52
2022-10-24T18:47:06.237Z,16.64
2022-10-24T18:49:29.477Z,16.64
2022-10-24T18:52:01.087Z,16.55
2022-10-24T18:54:22.892Z,16.67
2022-10-24T18:56:46.609Z,16.60
2022-10-24T18:59:16.908Z,16.54
2022-10-24T19:02:13.909Z,16.61
2022-10-24T19:04:41.337Z,16.55
2022-10-24T19:07:03.934Z,16.55
2022-10-24T19:09:26.373Z,16.47
2022-10-24T19:11:48.970Z,16.48
2022-10-24T19:14:10.800Z,16.58
2022-10-24T19:16:32.692Z,16.50
2022-10-24T19:18:56.904Z,16.49
2022-10-24T19:21:18.611Z,16.56
2022-10-24T19:23:40.054Z,16.63
2022-10-24T19:26:01.600Z,16.54
2022-10-24T19:28:23.078Z,16.46
2022-10-24T19:30:45.932Z,16.48
2022-10-24T19:33:07.478Z,16.31
2022-10-24T19:35:29.049Z,16.35
2022-10-24T19:37:50.522Z,16.53
2022-10-24T19:40:12.452Z,16.37
2022-10-24T19:42:34.706Z,16.62
2022-10-24T19:44:56.707Z,16.57
2022-10-24T19:47:18.219Z,16.49
2022-10-24T19:49:39.721Z,16.61
2022-10-24T19:52:01.804Z,16.64
2022-10-24T19:54:23.395Z,16.54
2022-10-24T19:56:44.970Z,16.46
2022-10-24T19:59:06.470Z,16.45
2022-10-24T20:01:30.155Z,16.44
2022-10-24T20:03:52.039Z,16.47
2022-10-24T20:06:14.037Z,16.46
2022-10-24T20:08:36.206Z,16.28
2022-10-24T20:10:57.783Z,16.36
2022-10-24T20:13:19.321Z,16.31
2022-10-24T20:15:40.861Z,16.24
2022-10-24T20:18:02.332Z,16.30
2022-10-24T20:20:25.081Z,16.32
2022-10-24T20:22:46.874Z,16.49
2022-10-24T20:25:08.718Z,16.50
2022-10-24T20:27:30.208Z,16.53
2022-10-24T20:29:51.721Z,16.62
2022-10-24T20:32:13.255Z,16.74
2022-10-24T20:34:34.764Z,16.68
2022-10-24T20:36:56.321Z,16.61
2022-10-24T20:39:21.102Z,16.52
2022-10-24T20:41:43.288Z,16.26
2022-10-24T20:44:07.013Z,16.44
2022-10-24T20:46:28.841Z,16.46
2022-10-24T20:48:50.877Z,16.54
2022-10-24T20:51:14.499Z,16.35
2022-10-24T20:53:36.130Z,16.33
2022-10-24T20:55:57.706Z,16.25
2022-10-24T20:58:19.172Z,16.10
2022-10-24T21:03:12.234Z,16.23
2022-10-24T21:05:35.279Z,16.11
2022-10-24T21:07:56.746Z,16.17
2022-10-24T21:10:18.297Z,16.10
2022-10-24T21:12:43.837Z,16.14
2022-10-24T21:15:08.827Z,16.15
2022-10-24T21:17:30.369Z,16.10
2022-10-24T21:19:51.971Z,16.06
2022-10-24T21:22:13.704Z,15.93
2022-10-24T21:24:35.212Z,16.13
2022-10-24T21:26:56.713Z,16.15
2022-10-24T21:29:32.857Z,16.33
2022-10-24T21:31:55.334Z,16.18
2022-10-24T21:34:18.278Z,16.13
2022-10-24T21:36:39.759Z,15.95
2022-10-24T21:39:01.312Z,15.93
2022-10-24T21:41:23.523Z,16.00
2022-10-24T21:43:45.710Z,15.99
2022-10-24T21:46:08.676Z,15.81
2022-10-24T21:48:31.432Z,15.74
2022-10-24T21:50:52.907Z,15.60
2022-10-24T21:53:14.378Z,15.54
2022-10-24T21:55:35.852Z,15.45
2022-10-24T21:57:57.326Z,15.46
2022-10-24T22:00:18.832Z,15.36
2022-10-24T22:02:40.367Z,15.36
2022-10-24T22:05:01.904Z,15.45
2022-10-24T22:07:24.691Z,15.63
2022-10-24T22:09:46.229Z,15.77
2022-10-24T22:12:07.758Z,15.78
2022-10-24T22:14:29.267Z,15.98
2022-10-24T22:16:50.913Z,15.83
2022-10-24T22:19:13.833Z,15.88
2022-10-24T22:21:37.899Z,15.99
2022-10-24T22:24:03.547Z,16.08
2022-10-24T22:26:26.167Z,16.14
2022-10-24T22:28:47.762Z,16.08
2022-10-24T22:31:12.995Z,15.87
2022-10-24T22:33:37.491Z,15.91
2022-10-24T22:36:06.866Z,16.02
2022-10-24T22:38:28.584Z,16.04
2022-10-24T22:40:50.335Z,15.91
2022-10-24T22:43:12.217Z,16.02
2022-10-24T22:45:34.152Z,16.02
2022-10-24T22:48:07.241Z,16.05
2022-10-24T22:50:54.863Z,16.00
2022-10-24T22:53:22.236Z,15.93
2022-10-24T22:55:49.579Z,15.88
2022-10-24T22:58:11.404Z,15.75
2022-10-24T23:00:33.157Z,15.65
2022-10-24T23:03:06.803Z,15.58
2022-10-24T23:06:03.967Z,15.70
2022-10-24T23:08:28.534Z,15.81
2022-10-24T23:10:50.239Z,15.86
2022-10-24T23:13:12.012Z,15.97
2022-10-24T23:15:33.829Z,15.68
2022-10-24T23:17:55.588Z,15.73
2022-10-24T23:20:30.267Z,15.74
2022-10-24T23:23:08.957Z,15.82
2022-10-24T23:25:36.862Z,15.92
2022-10-24T23:28:09.315Z,15.85
2022-10-24T23:30:31.125Z,15.56
2022-10-24T23:32:53.016Z,15.50
2022-10-24T23:35:16.363Z,15.53
2022-10-24T23:37:41.090Z,15.41
2022-10-24T23:40:21.472Z,15.58
2022-10-24T23:42:49.894Z,15.59
2022-10-24T23:45:20.470Z,15.67
2022-10-24T23:47:54.761Z,15.38
2022-10-24T23:50:24.977Z,15.38
2022-10-24T23:53:13.958Z,15.52
2022-10-24T23:55:35.723Z,15.47
2022-10-24T23:57:57.323Z,15.44
